Terminal Aerodrome Forecast
Issued by NWS

Home | Current Version | Previous Version | Text Only | Print | Product List | Glossary On
Versions: 1 2 3 4 5 6 7 8 9 10 11 12 13 14
000
FTUS46 KMTR 191134
TAFOAK
TAF
KOAK 191134Z 1912/2018 23008KT P6SM VCSH BKN030
     FM191400 23008KT P6SM VCSH SCT030 BKN060
     FM192100 24012KT P6SM VCSH BKN030
     FM200600 18010KT P6SM -RA BKN025 OVC050
     FM201000 15015KT 5SM -RA OVC025
      TEMPO 2012/2016 3SM RA OVC015=

USA.gov is the U.S. government's official web portal to all federal, state and local government web resources and services.